Time;durP1;ratioP1;P1;durP2;ratioP2;P2;SDS_P1;SDS_P2;PMS_P1;PMS_P2;Temp;Humidity;BMP_temperature;BMP_pressure;BME280_temperature;BME280_humidity;BME280_pressure;Samples;Min_cycle;Max_cycle;Signal;HPM_P1;HPM_P2
2021/09/29 00:01:40;;;;;;;18.17;8.98;;;;;;;11.39;67.70;100732.53;1759722;81;21536;-35
2021/09/29 00:04:08;;;;;;;16.70;8.60;;;;;;;11.36;67.73;100737.27;1743793;81;21069;-35
2021/09/29 00:06:36;;;;;;;21.30;9.00;;;;;;;11.31;67.73;100734.75;1761762;81;21064;-35
2021/09/29 00:09:03;;;;;;;14.33;8.58;;;;;;;11.23;67.88;100732.91;1747680;81;21004;-35
2021/09/29 00:11:31;;;;;;;20.85;8.13;;;;;;;11.17;68.00;100732.30;1742054;81;20998;-35
2021/09/29 00:13:57;;;;;;;19.12;8.33;;;;;;;11.18;68.03;100731.73;1742216;82;21089;-35
2021/09/29 00:16:24;;;;;;;17.30;8.18;;;;;;;11.18;67.97;100729.02;1763838;81;21057;-35
2021/09/29 00:18:51;;;;;;;20.88;8.93;;;;;;;11.14;68.08;100741.08;1750447;81;21013;-35
2021/09/29 00:21:17;;;;;;;15.83;8.03;;;;;;;11.08;68.21;100735.63;1742132;81;21013;-35
2021/09/29 00:23:44;;;;;;;20.45;8.13;;;;;;;11.04;68.29;100737.95;1753400;81;21068;-35
2021/09/29 00:26:12;;;;;;;19.48;7.80;;;;;;;11.00;68.39;100735.10;1772079;81;21114;-35
2021/09/29 00:28:39;;;;;;;13.08;7.12;;;;;;;10.94;68.57;100730.22;1755407;81;20962;-35
2021/09/29 00:31:06;;;;;;;14.03;7.15;;;;;;;10.96;68.57;100736.09;1735614;81;21341;-35
2021/09/29 00:33:35;;;;;;;15.95;7.70;;;;;;;10.96;68.65;100736.09;1765907;81;21072;-35
2021/09/29 00:36:03;;;;;;;14.78;7.42;;;;;;;10.97;68.67;100734.97;1762238;80;21521;-35
2021/09/29 00:38:31;;;;;;;17.05;7.85;;;;;;;10.95;68.62;100737.20;1766782;80;21126;-35
2021/09/29 00:40:59;;;;;;;14.60;7.28;;;;;;;10.90;68.60;100728.14;1772277;80;21012;-35
2021/09/29 00:43:26;;;;;;;15.58;7.47;;;;;;;10.90;68.58;100733.56;1774997;80;21524;-35
2021/09/29 00:45:53;;;;;;;18.85;7.58;;;;;;;10.90;68.63;100734.12;1776381;79;21016;-35
2021/09/29 00:48:20;;;;;;;14.87;7.85;;;;;;;10.94;68.64;100738.36;1790305;79;21013;-35
2021/09/29 00:50:48;;;;;;;16.00;7.75;;;;;;;10.93;68.55;100736.20;1803599;79;21526;-35
2021/09/29 00:53:18;;;;;;;16.25;7.53;;;;;;;10.90;68.56;100734.12;1791674;79;21460;-35
2021/09/29 00:55:46;;;;;;;16.77;7.33;;;;;;;10.88;68.50;100738.55;1788845;79;21511;-35
2021/09/29 00:58:12;;;;;;;12.55;7.20;;;;;;;10.88;68.42;100744.52;1774672;80;21016;-35
2021/09/29 01:00:39;;;;;;;10.95;6.90;;;;;;;10.86;68.40;100742.69;1775245;79;21004;-35
2021/09/29 01:04:53;;;;;;;15.03;6.85;;;;;;;10.91;68.45;100735.72;1825381;78;22574;-34
2021/09/29 01:07:30;;;;;;;16.80;7.08;;;;;;;10.78;68.66;100743.53;1728864;81;20926;-34
2021/09/29 01:10:25;;;;;;;18.62;7.15;;;;;;;10.76;68.84;100746.56;1731523;82;21186;-34
2021/09/29 01:12:58;;;;;;;12.25;6.92;;;;;;;10.74;68.75;100749.39;1739677;82;21512;-35
2021/09/29 01:15:27;;;;;;;20.40;6.58;;;;;;;10.68;68.92;100752.84;1738429;80;21012;-34
2021/09/29 01:18:08;;;;;;;12.25;6.45;;;;;;;10.66;69.15;100756.42;1740128;82;20973;-34
2021/09/29 01:20:45;;;;;;;15.18;6.53;;;;;;;10.68;69.14;100756.11;1743189;82;21536;-34
2021/09/29 01:23:33;;;;;;;13.20;6.97;;;;;;;10.67;69.31;100760.73;1740009;82;21616;-34
2021/09/29 01:26:08;;;;;;;16.35;6.60;;;;;;;10.66;69.43;100760.48;1742796;82;20958;-34
2021/09/29 01:28:39;;;;;;;11.60;6.30;;;;;;;10.62;69.61;100763.63;1737536;82;21540;-35
2021/09/29 01:31:06;;;;;;;17.75;6.55;;;;;;;10.67;69.57;100762.64;1721113;82;21008;-35
2021/09/29 01:33:35;;;;;;;12.07;6.83;;;;;;;10.69;69.51;100761.77;1751021;81;21508;-35
2021/09/29 01:36:03;;;;;;;16.62;7.12;;;;;;;10.68;69.44;100763.69;1728074;82;21826;-35
2021/09/29 01:38:30;;;;;;;13.05;6.50;;;;;;;10.66;69.38;100759.69;1743261;81;20981;-35
2021/09/29 01:40:57;;;;;;;11.53;6.85;;;;;;;10.61;69.46;100763.38;1744672;82;21057;-35
2021/09/29 01:43:24;;;;;;;15.20;6.92;;;;;;;10.58;69.50;100764.05;1745157;82;21586;-35
2021/09/29 01:45:51;;;;;;;13.13;6.78;;;;;;;10.55;69.54;100766.06;1738920;82;21652;-35
2021/09/29 01:48:18;;;;;;;15.10;7.05;;;;;;;10.54;69.64;100765.02;1728041;82;21527;-35
2021/09/29 01:50:47;;;;;;;13.65;6.90;;;;;;;10.55;69.67;100766.06;1714807;82;21011;-35
2021/09/29 01:53:14;;;;;;;14.20;6.67;;;;;;;10.55;69.70;100763.34;1728880;82;20938;-35
2021/09/29 01:55:41;;;;;;;13.68;7.42;;;;;;;10.54;69.68;100764.46;1719417;82;21033;-35
2021/09/29 01:58:08;;;;;;;14.05;7.15;;;;;;;10.49;69.72;100767.35;1743455;82;20965;-34
2021/09/29 02:00:34;;;;;;;14.00;7.08;;;;;;;10.41;69.79;100767.59;1739523;82;21153;-35
2021/09/29 02:03:01;;;;;;;12.68;6.95;;;;;;;10.39;69.87;100768.50;1739177;81;21037;-35
2021/09/29 02:05:31;;;;;;;15.70;7.33;;;;;;;10.39;69.86;100767.14;1731772;82;21714;-35
2021/09/29 02:08:00;;;;;;;17.32;7.25;;;;;;;10.41;69.93;100767.59;1747001;81;21028;-35
2021/09/29 02:10:27;;;;;;;9.75;6.25;;;;;;;10.40;69.90;100767.94;1736828;81;21511;-35
2021/09/29 02:12:54;;;;;;;14.10;7.67;;;;;;;10.37;70.09;100768.56;1739362;81;21143;-35
2021/09/29 02:15:21;;;;;;;13.10;7.00;;;;;;;10.37;70.24;100768.56;1741466;81;21554;-35
2021/09/29 02:17:50;;;;;;;15.53;7.62;;;;;;;10.39;70.22;100766.34;1751958;81;21004;-35
2021/09/29 02:20:17;;;;;;;18.12;7.67;;;;;;;10.44;70.21;100770.23;1752540;81;20981;-35
2021/09/29 02:22:44;;;;;;;15.83;7.92;;;;;;;10.48;70.21;100768.47;1738268;82;21107;-35
2021/09/29 02:25:12;;;;;;;13.48;6.95;;;;;;;10.49;70.29;100770.06;1747193;80;21021;-35
2021/09/29 02:27:39;;;;;;;11.03;6.87;;;;;;;10.49;70.34;100770.06;1732484;80;21009;-35
2021/09/29 02:30:08;;;;;;;14.20;6.40;;;;;;;10.50;70.18;100773.57;1724826;82;21563;-35
2021/09/29 02:32:37;;;;;;;15.63;6.83;;;;;;;10.49;70.12;100771.42;1749403;81;21473;-35
2021/09/29 02:35:08;;;;;;;16.48;6.78;;;;;;;10.51;69.95;100774.58;1749669;81;21041;-35
2021/09/29 02:37:35;;;;;;;17.37;6.78;;;;;;;10.51;69.97;100780.00;1723516;82;21830;-35
2021/09/29 02:40:04;;;;;;;12.30;6.78;;;;;;;10.50;69.99;100782.50;1753026;81;20964;-35
2021/09/29 02:42:30;;;;;;;14.70;7.55;;;;;;;10.50;70.03;100783.86;1755041;81;21009;-35
2021/09/29 02:44:57;;;;;;;14.55;6.75;;;;;;;10.50;70.10;100796.06;1747795;82;21563;-35
2021/09/29 02:47:23;;;;;;;13.60;6.75;;;;;;;10.51;70.06;100794.92;1727460;82;21045;-35
2021/09/29 02:49:50;;;;;;;10.25;6.03;;;;;;;10.54;70.06;100788.87;1750560;81;21146;-35
2021/09/29 02:52:17;;;;;;;12.78;6.58;;;;;;;10.58;69.96;100794.43;1749776;81;21487;-35
2021/09/29 02:54:43;;;;;;;14.03;7.47;;;;;;;10.61;69.94;100797.28;1751156;82;21024;-35
2021/09/29 02:57:10;;;;;;;10.72;6.95;;;;;;;10.62;69.91;100802.95;1748106;81;21009;-35
2021/09/29 02:59:37;;;;;;;14.58;6.85;;;;;;;10.63;69.94;100796.41;1764089;81;21484;-35
2021/09/29 03:02:03;;;;;;;10.65;5.92;;;;;;;10.66;69.99;100806.59;1721770;82;21145;-35
2021/09/29 03:04:30;;;;;;;13.35;6.90;;;;;;;10.71;69.95;100809.69;1725819;81;21092;-35
2021/09/29 03:06:56;;;;;;;10.28;6.30;;;;;;;10.75;69.99;100803.29;1748128;81;21076;-35
2021/09/29 03:09:23;;;;;;;8.18;5.78;;;;;;;10.81;69.82;100807.42;1751966;81;21508;-35
2021/09/29 03:11:49;;;;;;;9.20;5.78;;;;;;;10.81;69.67;100812.84;1738015;81;21025;-35
2021/09/29 03:14:16;;;;;;;9.85;5.83;;;;;;;10.81;69.72;100803.35;1751807;81;21719;-35
2021/09/29 03:16:43;;;;;;;9.58;5.67;;;;;;;10.83;69.62;100813.33;1730436;81;20925;-35
2021/09/29 03:19:10;;;;;;;8.43;5.35;;;;;;;10.87;69.64;100809.40;1762064;81;21514;-34
2021/09/29 03:21:37;;;;;;;10.20;6.10;;;;;;;10.91;69.57;100807.63;1738654;81;21143;-35
2021/09/29 03:24:04;;;;;;;12.50;6.10;;;;;;;10.94;69.56;100806.19;1738379;82;21084;-35
2021/09/29 03:26:30;;;;;;;11.55;6.22;;;;;;;10.99;69.51;100812.20;1724210;82;21142;-35
2021/09/29 03:28:57;;;;;;;10.72;6.55;;;;;;;11.01;69.51;100813.24;1730786;82;21025;-35
2021/09/29 03:31:24;;;;;;;10.03;6.65;;;;;;;11.01;69.50;100807.81;1724111;82;20977;-35
2021/09/29 03:33:50;;;;;;;11.28;6.25;;;;;;;10.99;69.36;100817.63;1716188;83;21120;-35
2021/09/29 03:36:17;;;;;;;9.43;6.25;;;;;;;10.98;69.41;100818.78;1735381;82;21092;-35
2021/09/29 03:38:44;;;;;;;13.13;6.10;;;;;;;10.98;69.34;100814.70;1732045;82;22035;-35
2021/09/29 03:41:11;;;;;;;8.65;6.80;;;;;;;11.01;69.22;100811.88;1740299;82;21117;-35
2021/09/29 03:43:37;;;;;;;10.43;6.65;;;;;;;10.96;69.25;100821.56;1722752;82;20945;-34
2021/09/29 03:46:04;;;;;;;10.03;5.87;;;;;;;10.96;69.32;100817.50;1733600;82;20981;-35
2021/09/29 03:48:31;;;;;;;9.00;6.05;;;;;;;10.96;69.25;100818.84;1752864;81;21032;-35
2021/09/29 03:50:57;;;;;;;9.48;5.78;;;;;;;10.97;69.14;100820.45;1745227;81;21133;-35
2021/09/29 03:53:25;;;;;;;12.05;5.67;;;;;;;11.03;69.07;100820.51;1710324;82;21037;-35
2021/09/29 03:55:51;;;;;;;8.10;6.00;;;;;;;11.08;68.95;100826.55;1708349;82;21523;-35
2021/09/29 03:58:20;;;;;;;10.82;6.72;;;;;;;11.10;68.86;100826.20;1713604;82;21048;-35
2021/09/29 04:00:47;;;;;;;9.28;6.25;;;;;;;11.09;68.91;100830.84;1719962;82;21076;-35
2021/09/29 04:03:13;;;;;;;9.50;6.08;;;;;;;11.10;68.83;100827.56;1740057;82;21134;-39
2021/09/29 04:05:40;;;;;;;10.32;6.50;;;;;;;11.08;68.82;100836.05;1739838;82;21025;-39
2021/09/29 04:08:07;;;;;;;6.85;5.72;;;;;;;11.05;68.80;100833.17;1733302;82;21559;-38
2021/09/29 04:10:33;;;;;;;8.33;5.58;;;;;;;11.05;68.84;100836.69;1728510;82;21478;-38
2021/09/29 04:13:00;;;;;;;9.00;5.50;;;;;;;11.07;68.71;100839.08;1729851;82;21551;-39
2021/09/29 04:15:27;;;;;;;7.17;5.20;;;;;;;11.06;68.73;100836.92;1736021;82;21814;-39
2021/09/29 04:17:53;;;;;;;6.37;5.47;;;;;;;11.07;68.67;100839.08;1716898;81;20993;-39
2021/09/29 04:20:20;;;;;;;7.35;5.55;;;;;;;11.05;68.68;100846.73;1792965;79;21009;-38
2021/09/29 04:22:47;;;;;;;9.93;5.50;;;;;;;11.01;68.63;100841.17;1795193;79;20987;-38
2021/09/29 04:25:15;;;;;;;8.83;5.50;;;;;;;10.99;68.67;100839.34;1795035;79;20906;-38
2021/09/29 04:27:42;;;;;;;10.38;5.37;;;;;;;11.03;68.45;100847.64;1792918;79;21150;-39
2021/09/29 04:30:14;;;;;;;6.65;5.58;;;;;;;11.05;68.42;100842.67;1791367;79;21498;-39
2021/09/29 04:32:39;;;;;;;9.05;5.90;;;;;;;11.06;68.29;100846.98;1795329;79;20966;-39
2021/09/29 04:35:08;;;;;;;8.95;5.72;;;;;;;11.05;68.17;100850.81;1795461;79;21504;-39
2021/09/29 04:37:35;;;;;;;8.13;5.97;;;;;;;11.03;68.14;100853.87;1790446;79;21061;-39
2021/09/29 04:40:04;;;;;;;8.05;5.70;;;;;;;10.99;68.10;100857.56;1771148;79;21131;-39
2021/09/29 04:42:32;;;;;;;6.12;4.97;;;;;;;10.94;68.25;100855.80;1795117;78;20985;-39
2021/09/29 04:44:59;;;;;;;7.60;5.78;;;;;;;10.99;68.32;100854.85;1794776;79;21047;-39
2021/09/29 04:47:25;;;;;;;8.73;5.58;;;;;;;11.02;68.24;100856.34;1785020;78;21002;-39
2021/09/29 04:49:52;;;;;;;9.65;6.37;;;;;;;11.07;68.26;100859.44;1772929;79;21559;-39
2021/09/29 04:52:18;;;;;;;8.30;5.53;;;;;;;11.10;68.10;100865.56;1794851;79;21116;-38
2021/09/29 04:54:45;;;;;;;8.33;5.70;;;;;;;11.10;68.06;100860.13;1781071;79;21013;-38
2021/09/29 04:57:12;;;;;;;8.80;5.47;;;;;;;11.10;67.93;100857.41;1792028;78;20990;-39
2021/09/29 04:59:39;;;;;;;7.83;5.12;;;;;;;11.07;67.67;100858.88;1789133;80;20949;-38
2021/09/29 05:02:06;;;;;;;6.30;5.30;;;;;;;11.09;67.57;100862.60;1783872;80;21031;-39
2021/09/29 05:04:32;;;;;;;7.35;5.25;;;;;;;11.08;67.43;100867.82;1695718;83;21252;-39
2021/09/29 05:07:00;;;;;;;7.97;5.65;;;;;;;11.03;67.55;100864.73;1757000;80;20882;-38
2021/09/29 05:09:26;;;;;;;9.33;5.90;;;;;;;10.99;67.58;100866.47;1755926;81;21052;-39
2021/09/29 05:12:10;;;;;;;8.05;6.35;;;;;;;10.96;67.68;100877.19;1764007;81;21047;-38
2021/09/29 05:14:37;;;;;;;7.05;5.78;;;;;;;10.93;67.56;100874.58;1761362;80;20996;-38
2021/09/29 05:17:03;;;;;;;6.15;4.80;;;;;;;10.90;67.37;100880.64;1762566;81;21121;-38
2021/09/29 05:19:31;;;;;;;6.42;4.70;;;;;;;10.87;67.24;100882.09;1755136;80;20918;-38
2021/09/29 05:21:58;;;;;;;6.15;4.65;;;;;;;10.85;67.16;100881.61;1758421;80;21061;-38
2021/09/29 05:24:25;;;;;;;5.30;4.62;;;;;;;10.78;67.24;100879.97;1762292;81;21022;-39
2021/09/29 05:26:51;;;;;;;6.78;4.65;;;;;;;10.75;67.63;100879.80;1755647;81;21039;-38
2021/09/29 05:29:19;;;;;;;5.30;4.20;;;;;;;10.73;67.58;100886.92;1747738;81;21083;-38
2021/09/29 05:31:47;;;;;;;4.63;3.60;;;;;;;10.70;67.58;100886.75;1755392;81;21489;-38
2021/09/29 05:34:14;;;;;;;6.80;3.90;;;;;;;10.70;67.41;100890.82;1757519;80;21377;-38
2021/09/29 05:36:45;;;;;;;4.72;3.87;;;;;;;10.72;67.43;100896.73;1765732;80;20948;-38
2021/09/29 05:39:10;;;;;;;5.00;3.95;;;;;;;10.72;67.50;100898.09;1747192;79;21535;-36
2021/09/29 05:41:37;;;;;;;4.75;3.80;;;;;;;10.75;67.50;100900.14;1757873;81;21170;-36
2021/09/29 05:44:04;;;;;;;8.45;3.90;;;;;;;10.74;67.43;100897.22;1758223;80;21013;-37
2021/09/29 05:46:32;;;;;;;4.08;3.45;;;;;;;10.75;67.54;100902.30;1764097;80;21037;-36
2021/09/29 05:48:59;;;;;;;9.08;4.10;;;;;;;10.76;67.44;100903.90;1758219;80;21029;-37
2021/09/29 05:51:26;;;;;;;6.53;3.92;;;;;;;10.81;67.38;100896.95;1760437;80;21055;-36
2021/09/29 05:53:54;;;;;;;6.97;4.78;;;;;;;10.87;67.30;100903.00;1757053;81;21128;-36
2021/09/29 05:56:21;;;;;;;7.97;4.50;;;;;;;10.86;67.22;100895.42;1749502;81;20973;-36
2021/09/29 05:58:48;;;;;;;7.62;5.05;;;;;;;10.87;67.12;100905.71;1768605;80;21074;-36
2021/09/29 06:01:15;;;;;;;8.70;5.75;;;;;;;10.87;67.22;100901.09;1767666;81;21031;-36
2021/09/29 06:03:41;;;;;;;6.00;4.90;;;;;;;10.89;67.24;100906.97;1756186;80;21521;-37
2021/09/29 06:06:09;;;;;;;7.10;4.70;;;;;;;10.93;67.14;100902.27;1793308;77;21119;-36
2021/09/29 06:08:37;;;;;;;6.58;4.80;;;;;;;10.97;67.01;100910.80;1789602;79;21474;-36
2021/09/29 06:11:05;;;;;;;7.42;5.72;;;;;;;11.02;66.73;100913.34;1789694;79;20915;-36
2021/09/29 06:13:32;;;;;;;7.53;5.22;;;;;;;11.02;66.90;100916.05;1789882;80;21066;-36
2021/09/29 06:16:06;;;;;;;8.28;5.12;;;;;;;11.05;66.72;100919.46;1799028;78;21488;-36
2021/09/29 06:18:27;;;;;;;7.10;5.53;;;;;;;11.07;66.57;100922.66;1724447;82;21159;-36
2021/09/29 06:20:54;;;;;;;6.37;5.20;;;;;;;11.09;66.69;100914.17;1747520;82;21084;-36
2021/09/29 06:23:21;;;;;;;7.20;4.90;;;;;;;11.11;66.48;100919.53;1744240;82;21029;-36
2021/09/29 06:25:49;;;;;;;5.92;5.33;;;;;;;11.16;66.32;100922.63;1736100;82;21106;-36
2021/09/29 06:28:15;;;;;;;7.72;5.67;;;;;;;11.19;66.01;100917.33;1749197;82;21529;-38
2021/09/29 06:30:42;;;;;;;10.00;5.85;;;;;;;11.18;66.06;100920.39;1748547;82;21065;-38
2021/09/29 06:33:09;;;;;;;9.23;6.00;;;;;;;11.14;65.84;100924.85;1726817;80;21538;-38
2021/09/29 06:35:36;;;;;;;9.58;5.92;;;;;;;11.09;65.98;100928.55;1725968;82;20976;-38
2021/09/29 06:38:05;;;;;;;8.40;6.55;;;;;;;11.06;66.01;100925.13;1735108;82;21504;-38
2021/09/29 06:40:32;;;;;;;10.00;5.80;;;;;;;11.03;66.19;100927.70;1751026;81;21041;-38
2021/09/29 06:43:03;;;;;;;7.37;5.75;;;;;;;11.04;66.49;100932.79;1751112;81;20938;-38
2021/09/29 06:45:31;;;;;;;6.45;5.83;;;;;;;11.10;66.18;100926.07;1751391;81;21025;-38
2021/09/29 06:47:58;;;;;;;7.50;5.78;;;;;;;11.15;66.16;100925.89;1724834;81;21055;-38
2021/09/29 06:50:25;;;;;;;7.97;6.05;;;;;;;11.21;66.14;100929.23;1745627;82;20997;-38
2021/09/29 06:52:52;;;;;;;8.78;6.65;;;;;;;11.27;65.99;100927.38;1746730;80;20977;-38
2021/09/29 06:55:19;;;;;;;9.33;6.30;;;;;;;11.34;65.60;100937.72;1746198;80;21809;-38
2021/09/29 06:57:46;;;;;;;9.38;6.65;;;;;;;11.36;65.54;100925.18;1763417;80;21053;-38
2021/09/29 07:00:15;;;;;;;11.28;6.28;;;;;;;11.38;65.50;100923.72;1745834;82;20989;-38
2021/09/29 07:02:45;;;;;;;6.90;5.63;;;;;;;11.43;65.35;100930.33;1749473;81;21006;-38
2021/09/29 07:05:12;;;;;;;8.98;6.20;;;;;;;11.52;65.11;100927.59;1744723;81;21630;-38
2021/09/29 07:07:39;;;;;;;12.98;6.75;;;;;;;11.60;64.91;100931.61;1739163;82;21076;-38
2021/09/29 07:10:08;;;;;;;7.90;6.33;;;;;;;11.64;64.96;100934.46;1732069;81;21073;-38
2021/09/29 07:12:37;;;;;;;12.63;7.28;;;;;;;11.72;65.00;100939.88;1725033;82;21466;-38
2021/09/29 07:15:05;;;;;;;10.75;6.95;;;;;;;11.78;64.42;100932.89;1726427;83;21030;-38
2021/09/29 07:17:33;;;;;;;9.93;6.97;;;;;;;11.80;64.22;100944.24;1702291;81;21204;-38
2021/09/29 07:20:02;;;;;;;15.05;6.90;;;;;;;11.82;64.02;100941.97;1783860;78;21528;-38
2021/09/29 07:22:28;;;;;;;11.70;6.47;;;;;;;11.86;64.09;100944.29;1728659;81;21876;-38
2021/09/29 07:24:55;;;;;;;7.83;5.92;;;;;;;11.91;63.78;100939.44;1734861;82;20910;-38
2021/09/29 07:27:22;;;;;;;10.05;6.12;;;;;;;11.96;63.38;100939.80;1723315;80;21023;-38
2021/09/29 07:29:49;;;;;;;10.90;6.58;;;;;;;12.01;63.11;100931.45;1714554;82;21036;-38
2021/09/29 07:32:16;;;;;;;9.30;6.17;;;;;;;12.08;63.32;100938.53;1725457;82;21797;-38
2021/09/29 07:34:42;;;;;;;9.98;6.33;;;;;;;12.13;63.06;100939.70;1713533;82;21033;-38
2021/09/29 07:37:09;;;;;;;9.60;6.00;;;;;;;12.22;63.21;100928.75;1733915;82;21036;-38
2021/09/29 07:39:36;;;;;;;6.60;5.80;;;;;;;12.32;62.68;100936.52;1741120;82;21045;-38
2021/09/29 07:42:03;;;;;;;8.50;5.62;;;;;;;12.37;62.24;100934.39;1742851;82;21056;-38
2021/09/29 07:44:30;;;;;;;9.78;6.33;;;;;;;12.41;61.49;100935.88;1741188;82;21743;-38
2021/09/29 07:46:57;;;;;;;8.68;5.78;;;;;;;12.41;61.23;100940.75;1725043;82;21038;-38
2021/09/29 07:49:23;;;;;;;11.57;5.85;;;;;;;12.37;61.27;100936.31;1713173;83;20953;-37
2021/09/29 07:51:51;;;;;;;7.50;5.35;;;;;;;12.35;61.26;100933.91;1728975;82;21576;-38
2021/09/29 07:54:18;;;;;;;9.55;5.60;;;;;;;12.34;61.10;100941.87;1728445;82;21539;-38
2021/09/29 07:56:45;;;;;;;8.70;5.37;;;;;;;12.34;60.81;100941.87;1733393;80;21154;-38
2021/09/29 07:59:12;;;;;;;6.83;5.30;;;;;;;12.33;60.62;100937.55;1739150;80;21052;-38
2021/09/29 08:01:39;;;;;;;6.33;5.60;;;;;;;12.36;60.78;100947.75;1713688;82;20922;-38
2021/09/29 08:04:05;;;;;;;5.10;4.60;;;;;;;12.40;60.23;100941.87;1724792;82;21520;-38
2021/09/29 08:06:34;;;;;;;5.47;4.67;;;;;;;12.44;59.89;100946.88;1739119;81;21038;-38
2021/09/29 08:09:03;;;;;;;;;;;;;;;12.54;59.35;100942.39;1730811;81;21566;-38
2021/09/29 08:11:29;;;;;;;9.10;4.92;;;;;;;12.38;58.86;100891.67;1714399;82;20126;-38
2021/09/29 08:13:56;;;;;;;7.58;4.95;;;;;;;12.73;59.04;100947.92;1737635;82;21016;-37
2021/09/29 08:16:23;;;;;;;6.50;4.65;;;;;;;12.91;58.74;100933.00;1737543;82;20928;-38
2021/09/29 08:18:51;;;;;;;6.10;4.42;;;;;;;13.12;57.62;100940.55;1709288;82;21563;-38
2021/09/29 08:21:23;;;;;;;6.33;4.95;;;;;;;13.31;56.94;100940.80;1723671;82;21590;-38
2021/09/29 08:23:49;;;;;;;6.20;4.67;;;;;;;13.51;56.45;100938.34;1721490;82;21003;-38
2021/09/29 08:28:52;;;;;;;9.15;4.62;;;;;;;13.87;55.50;100929.56;1678642;82;21052;-38
2021/09/29 08:31:35;;;;;;;6.75;4.75;;;;;;;14.06;54.70;100934.98;1760881;80;22182;-38
2021/09/29 08:36:37;;;;;;;11.08;5.78;;;;;;;14.29;53.23;100931.39;1759144;80;21028;-38
2021/09/29 08:41:48;;;;;;;7.53;4.60;;;;;;;14.57;53.18;100933.39;1762182;80;20987;-38
2021/09/29 08:44:13;;;;;;;7.42;4.42;;;;;;;14.71;52.08;100934.57;1784617;80;21047;-38
2021/09/29 08:47:00;;;;;;;8.43;4.45;;;;;;;14.83;52.17;100932.33;1784087;80;21199;-38
2021/09/29 08:49:23;;;;;;;;;;;;;;;14.96;51.89;100932.47;1777622;80;21020;-38
2021/09/29 09:16:35;;;;;;;3.37;2.70;;;;;;;15.21;46.62;100933.91;1766636;80;20980;-38
2021/09/29 09:19:09;;;;;;;2.90;2.60;;;;;;;15.10;46.36;100930.11;1764290;80;21031;-38
2021/09/29 09:21:52;;;;;;;3.77;2.87;;;;;;;14.96;46.67;100935.20;1776780;80;21048;-38
2021/09/29 09:24:23;;;;;;;3.87;2.90;;;;;;;14.85;46.94;100933.36;1756644;80;21049;-38
2021/09/29 09:27:06;;;;;;;3.85;2.87;;;;;;;14.75;46.58;100931.93;1783618;80;21748;-38
2021/09/29 09:29:49;;;;;;;4.70;2.85;;;;;;;14.65;47.01;100925.61;1717473;83;20985;-38
2021/09/29 09:32:19;;;;;;;5.90;3.22;;;;;;;14.54;47.43;100938.16;1737140;82;21001;-39
2021/09/29 09:34:46;;;;;;;6.62;2.60;;;;;;;14.45;47.79;100930.69;1786396;80;21033;-39
2021/09/29 09:37:15;;;;;;;5.37;2.80;;;;;;;14.41;47.93;100933.89;1788125;80;21051;-39
2021/09/29 09:39:42;;;;;;;4.00;2.60;;;;;;;14.35;47.80;100935.47;1788034;80;21093;-38
2021/09/29 09:42:09;;;;;;;4.10;2.37;;;;;;;14.31;48.06;100933.22;1770898;80;20928;-38
2021/09/29 09:44:40;;;;;;;4.65;2.87;;;;;;;14.32;47.83;100935.37;1779173;80;21081;-39
2021/09/29 09:47:13;;;;;;;4.45;2.98;;;;;;;14.33;47.54;100938.30;1758017;80;21027;-38
2021/09/29 09:49:53;;;;;;;6.55;2.92;;;;;;;14.35;47.89;100940.92;1762035;80;20995;-38
2021/09/29 09:52:36;;;;;;;5.35;3.05;;;;;;;14.37;47.49;100933.00;1769174;80;21096;-39
2021/09/29 09:55:13;;;;;;;3.98;3.15;;;;;;;14.35;47.40;100930.58;1761379;80;20908;-39
2021/09/29 09:57:42;;;;;;;3.80;3.10;;;;;;;14.36;47.65;100940.39;1741672;82;20976;-38
2021/09/29 10:00:11;;;;;;;4.28;2.85;;;;;;;14.36;47.03;100936.30;1737501;82;20976;-39
2021/09/29 10:02:47;;;;;;;3.33;2.50;;;;;;;14.37;47.03;100927.55;1780532;80;20974;-39
2021/09/29 10:05:16;;;;;;;2.87;2.22;;;;;;;14.37;47.28;100932.44;1769580;80;21786;-39
2021/09/29 10:07:45;;;;;;;7.60;2.80;;;;;;;14.38;46.79;100929.14;1778278;80;21676;-38
2021/09/29 10:22:49;;;;;;;3.00;2.37;;;;;;;14.39;46.50;100933.44;1750949;80;21045;-39
2021/09/29 10:23:39;;;;;;;4.03;2.20;;;;;;;14.37;46.52;100939.25;1758366;80;21032;-38
2021/09/29 10:26:11;;;;;;;3.52;1.80;;;;;;;14.35;46.56;100938.20;1696469;82;21789;-39
2021/09/29 10:28:42;;;;;;;2.98;1.80;;;;;;;14.32;46.47;100932.65;1758926;80;21039;-39
2021/09/29 10:37:24;;;;;;;2.45;1.80;;;;;;;14.18;46.80;100935.77;1759949;80;21035;-39
2021/09/29 10:42:55;;;;;;;3.80;2.10;;;;;;;14.17;47.09;100930.08;1752720;80;21515;-39
2021/09/29 11:07:17;;;;;;;2.52;2.22;;;;;;;14.31;46.07;100932.42;1751559;80;21096;-39
2021/09/29 11:29:28;;;;;;;2.92;2.22;;;;;;;14.67;45.59;100909.09;1770770;80;21024;-36
2021/09/29 11:31:30;;;;;;;3.72;2.10;;;;;;;15.00;45.08;100914.84;1768751;80;20976;-35
2021/09/29 11:34:08;;;;;;;5.87;2.50;;;;;;;15.19;44.56;100916.30;1775395;80;20925;-35
2021/09/29 11:36:50;;;;;;;2.90;2.35;;;;;;;15.30;44.04;100909.73;1764821;80;21091;-35
2021/09/29 12:11:28;;;;;;;3.83;2.27;;;;;;;14.36;46.64;100900.83;1752719;81;21555;-39
2021/09/29 12:13:59;;;;;;;4.87;2.80;;;;;;;14.28;46.49;100905.24;1761745;81;21116;-39
2021/09/29 12:16:30;;;;;;;3.52;2.60;;;;;;;14.21;46.58;100907.78;1763894;81;21041;-39
2021/09/29 12:19:07;;;;;;;3.40;2.42;;;;;;;14.14;47.20;100906.20;1744993;81;21757;-39
2021/09/29 12:24:34;;;;;;;6.12;3.10;;;;;;;14.09;47.23;100907.80;1752860;81;20941;-37
2021/09/29 12:27:02;;;;;;;6.83;2.87;;;;;;;14.09;47.54;100911.89;1741499;81;21060;-37
2021/09/29 12:29:37;;;;;;;3.72;2.95;;;;;;;14.01;47.52;100906.58;1750024;81;21036;-37
2021/09/29 12:35:22;;;;;;;6.90;4.05;;;;;;;13.91;47.70;100910.58;1756539;81;21054;-37
2021/09/29 12:37:59;;;;;;;5.05;3.60;;;;;;;13.81;47.65;100907.76;1729045;82;20997;-37
2021/09/29 12:40:32;;;;;;;5.05;3.60;;;;;;;13.74;48.11;100910.84;1677964;84;21612;-37
2021/09/29 12:43:12;;;;;;;5.28;3.55;;;;;;;13.70;48.49;100909.95;1713829;83;21032;-37
2021/09/29 12:45:43;;;;;;;6.83;3.10;;;;;;;13.68;48.55;100906.76;1747743;80;21178;-37
2021/09/29 12:48:12;;;;;;;3.65;3.00;;;;;;;13.64;48.74;100909.95;1746719;80;21013;-37
2021/09/29 12:50:46;;;;;;;5.75;2.90;;;;;;;13.58;48.89;100909.94;1777111;80;20972;-37
2021/09/29 12:55:46;;;;;;;5.62;3.33;;;;;;;13.53;49.92;100903.36;1709055;83;21107;-37
2021/09/29 12:58:12;;;;;;;3.90;3.15;;;;;;;13.58;49.59;100901.77;1769361;80;21129;-37
2021/09/29 13:00:40;;;;;;;2.92;2.62;;;;;;;13.60;50.14;100903.59;1756478;80;20980;-37
2021/09/29 13:03:06;;;;;;;3.92;2.75;;;;;;;13.63;50.02;100909.71;1765238;80;20972;-37
2021/09/29 13:05:33;;;;;;;3.80;3.08;;;;;;;13.64;49.82;100906.66;1765834;79;21068;-37
2021/09/29 13:08:00;;;;;;;4.00;2.60;;;;;;;13.69;50.20;100911.08;1754242;80;20955;-37
2021/09/29 13:10:28;;;;;;;3.20;2.75;;;;;;;13.72;50.25;100898.91;1768557;80;20973;-37
2021/09/29 13:12:55;;;;;;;3.92;3.08;;;;;;;13.72;50.69;100904.93;1757531;79;21456;-37
2021/09/29 13:15:22;;;;;;;4.08;2.77;;;;;;;13.71;50.67;100905.50;1711518;82;20974;-37
2021/09/29 13:17:53;;;;;;;4.03;3.00;;;;;;;13.70;50.52;100901.77;1711143;82;21020;-37
2021/09/29 13:22:08;;;;;;;5.62;3.30;;;;;;;13.70;50.23;100899.81;1836318;77;22437;-36
2021/09/29 13:38:01;;;;;;;3.40;3.10;;;;;;;13.40;51.12;100891.69;1809475;79;20963;-36
2021/09/29 13:40:28;;;;;;;5.15;3.10;;;;;;;13.43;51.26;100893.72;1815962;79;21849;-36
2021/09/29 13:42:57;;;;;;;6.05;3.83;;;;;;;13.44;51.60;100887.94;1801583;79;20886;-36
2021/09/29 13:45:24;;;;;;;3.62;3.08;;;;;;;13.54;51.77;100891.33;1782648;80;20918;-36
2021/09/29 13:47:50;;;;;;;4.15;3.42;;;;;;;13.61;51.12;100888.81;1782452;80;20965;-37
2021/09/29 13:50:19;;;;;;;5.12;3.30;;;;;;;13.67;50.95;100891.53;1784823;79;21558;-37
2021/09/29 13:52:46;;;;;;;4.58;3.33;;;;;;;13.73;50.82;100891.53;1810494;78;21092;-37
2021/09/29 13:55:17;;;;;;;4.08;3.35;;;;;;;13.74;50.63;100891.20;1804179;79;21080;-36
2021/09/29 14:00:29;;;;;;;3.95;3.30;;;;;;;13.67;50.58;100899.14;1756643;80;21476;-37
2021/09/29 14:03:14;;;;;;;5.45;3.27;;;;;;;13.64;50.55;100899.05;1802054;79;21147;-37